Artemis — SWZE — position and weather

sailwx.info

Track history (hours):
 
Tides and Currents Weather Stations Pressure Air Temp Water Temp Dewpoint Dewpoint Depression Visibility Wind Speed Wind Dir Waves Ship Positions

Artemis

Last reported at 2017-Aug-18 15:06 UTC. Time now 2017-Aug-19 07:39 UTC.
Position N 36°59' E 025°17'.

Length 90 m; draft 3.7 m.

Type: Ship. MMSI: 237026300.

Date/timePositionNaut miles runAvg speedWind from/ knotsBaromVisibWave heightAir tempDewpointWater temp
2017-Aug-18 15:06N 36°59' E 025°17'114.4
2017-Aug-18 15:01N 37°01' E 025°18'713.5
2017-Aug-18 14:30N 37°06' E 025°22'11 8.5
2017-Aug-18 13:12N 37°07' E 025°08'1 2.2
2017-Aug-18 12:34N 37°05' E 025°09'112.5
2017-Aug-18 12:30N 37°05' E 025°08'714.2
2017-Aug-18 12:00N 37°12' E 025°10'714.6
2017-Aug-18 11:30N 37°19' E 025°14'714.7
2017-Aug-18 11:00N 37°25' E 025°17'3 5.7
2017-Aug-18 10:30N 37°28' E 025°20'510.5
2017-Aug-18 10:01N 37°28' E 025°13'713.1
2017-Aug-18 09:30N 37°27' E 025°05'713.3
2017-Aug-18 09:01N 37°26' E 024°57'1 1.3
2017-Aug-18 08:30N 37°27' E 024°57'611.9
2017-Aug-18 08:01N 37°31' E 024°52'8 0.4
2017-Aug-17 11:39N 37°26' E 024°44'214.0
2017-Aug-17 11:30N 37°25' E 024°46'713.7
2017-Aug-17 11:00N 37°22' E 024°54'510.6
2017-Aug-17 10:31N 37°26' E 024°57'2 3.7
2017-Aug-17 09:59N 37°28' E 024°57'714.7
2017-Aug-17 09:30N 37°34' E 024°53'6 1.6
2017-Aug-17 05:30N 37°37' E 025°01'714.3
2017-Aug-17 05:00N 37°32' E 025°08'3 6.2
2017-Aug-17 04:30N 37°29' E 025°09'713.2
2017-Aug-17 04:01N 37°23' E 025°08'1113.6
2017-Aug-17 03:12N 37°12' E 025°07'313.5
2017-Aug-17 03:00N 37°09' E 025°07'4 0.7
2017-Aug-16 21:22N 37°05' E 025°08'512.7
2017-Aug-16 21:00N 37°10' E 025°07'814.4
2017-Aug-16 20:28N 37°17' E 025°08'714.7
2017-Aug-16 20:01N 37°24' E 025°08'714.7
2017-Aug-16 19:31N 37°31' E 025°09'4 8.2
2017-Aug-16 19:00N 37°34' E 025°05'8 2.1
2017-Aug-16 15:05N 37°33' E 024°55'113.3
2017-Aug-16 14:59N 37°32' E 024°56'612.3
2017-Aug-16 14:29N 37°26' E 024°57'1 3.0
2017-Aug-16 14:00N 37°28' E 024°57'612.0
2017-Aug-16 13:29N 37°31' E 024°51'28 2.6
2017-Aug-16 02:43N 37°04' E 025°00'314.4
2017-Aug-16 02:31N 37°05' E 025°03'4 0.6
2017-Aug-15 19:21N 37°05' E 025°08'412.0
2017-Aug-15 19:00N 37°05' E 025°03'30 3.0
2017-Aug-15 08:51N 37°31' E 024°44'514.9
2017-Aug-15 08:30N 37°31' E 024°50'612.6
2017-Aug-15 08:01N 37°28' E 024°57'2 3.4
2017-Aug-15 07:30N 37°27' E 024°57'612.2
2017-Aug-15 07:00N 37°31' E 024°52'7 0.5
2017-Aug-14 17:22N 37°31' E 024°44'514.4
2017-Aug-14 17:00N 37°31' E 024°51'612.5
2017-Aug-14 16:30N 37°28' E 024°57'2 3.4
2017-Aug-14 16:00N 37°26' E 024°56'4 8.8
2017-Aug-14 15:30N 37°22' E 024°57'713.5
2017-Aug-14 15:00N 37°18' E 024°50'18 2.3
2017-Aug-14 07:10N 37°03' E 025°01'214.7
2017-Aug-14 07:01N 37°04' E 025°04'4 6.3
2017-Aug-14 06:23N 37°05' E 025°09'512.4
2017-Aug-14 06:01N 37°05' E 025°03'17 1.6
2017-Aug-13 19:01N 37°16' E 024°47'014.9
2017-Aug-13 19:01N 37°16' E 024°47'714.9
2017-Aug-13 18:31N 37°21' E 024°54'611.6
2017-Aug-13 18:01N 37°26' E 024°57'1 2.3
2017-Aug-13 17:30N 37°27' E 024°57'612.2
2017-Aug-13 17:00N 37°31' E 024°52'29 2.8
2017-Aug-13 06:40N 37°03' E 025°01'214.4
2017-Aug-13 06:30N 37°04' E 025°04'3 3.1
2017-Aug-13 05:31N 37°05' E 025°07'0 9.1
2017-Aug-13 05:30N 37°05' E 025°07'4 8.8
2017-Aug-13 05:00N 37°03' E 025°02'31 2.8
2017-Aug-12 17:53N 37°31' E 024°44'514.1
2017-Aug-12 17:30N 37°31' E 024°50'612.5
2017-Aug-12 17:00N 37°28' E 024°57'2 3.1
2017-Aug-12 16:24N 37°26' E 024°57'612.9
2017-Aug-12 15:58N 37°27' E 025°04'714.4
2017-Aug-12 15:30N 37°27' E 025°12'611.9
2017-Aug-12 15:00N 37°28' E 025°19'3 6.8
2017-Aug-12 14:30N 37°25' E 025°17'713.7
2017-Aug-12 14:01N 37°18' E 025°14'714.0
2017-Aug-12 13:30N 37°12' E 025°10'714.2
2017-Aug-12 13:01N 37°06' E 025°08'1 0.9
2017-Aug-12 12:01N 37°05' E 025°09'010.7
2017-Aug-12 12:00N 37°05' E 025°09'510.8
2017-Aug-12 11:31N 37°09' E 025°13'612.9
2017-Aug-12 11:01N 37°07' E 025°21'2 3.4
2017-Aug-12 10:31N 37°06' E 025°22'1 1.3
2017-Aug-12 10:00N 37°06' E 025°21'612.8
2017-Aug-12 09:31N 37°01' E 025°18'1 0.1
2017-Aug-11 15:59N 36°59' E 025°18'714.6
2017-Aug-11 15:30N 37°06' E 025°20'2 3.3
2017-Aug-11 15:00N 37°06' E 025°22'1110.9
2017-Aug-11 13:59N 37°07' E 025°08'2 2.0
2017-Aug-11 13:10N 37°05' E 025°08'211.0
2017-Aug-11 13:00N 37°07' E 025°08'714.7
2017-Aug-11 12:30N 37°14' E 025°11'714.6
2017-Aug-11 12:00N 37°20' E 025°15'714.0
2017-Aug-11 11:30N 37°27' E 025°18'2 3.4
2017-Aug-11 11:00N 37°28' E 025°19'2 3.8
2017-Aug-11 10:30N 37°29' E 025°17'713.2
2017-Aug-11 10:00N 37°28' E 025°09'713.5
2017-Aug-11 09:30N 37°27' E 025°01'3 6.3
2017-Aug-11 08:59N 37°26' E 024°56'2 4.7
2017-Aug-11 08:30N 37°29' E 024°57'612.1
2017-Aug-11 08:00N 37°31' E 024°50'7 0.4
2017-Aug-10 11:27N 37°26' E 024°44'613.9
2017-Aug-10 11:00N 37°23' E 024°50'612.9
2017-Aug-10 10:30N 37°24' E 024°59'3 6.1
2017-Aug-10 09:58N 37°26' E 024°56'4 9.3
2017-Aug-10 09:30N 37°31' E 024°56'714.1
2017-Aug-10 09:00N 37°37' E 024°53'8 3.0
2017-Aug-10 06:19N 37°45' E 024°52'1114.0
2017-Aug-10 05:32N 37°37' E 025°01'112.8
2017-Aug-10 05:30N 37°36' E 025°01'612.6
2017-Aug-10 05:01N 37°33' E 025°07'2 4.2
2017-Aug-10 04:30N 37°31' E 025°09'713.2
2017-Aug-10 04:00N 37°24' E 025°08'714.0
2017-Aug-10 03:30N 37°17' E 025°08'714.0
2017-Aug-10 03:00N 37°10' E 025°07'5 1.1
2017-Aug-09 22:01N 37°05' E 025°08'014.2
2017-Aug-09 22:00N 37°05' E 025°08'913.9
2017-Aug-09 21:20N 37°15' E 025°08'514.1
2017-Aug-09 21:00N 37°19' E 025°08'714.1
2017-Aug-09 20:30N 37°26' E 025°08'612.4
2017-Aug-09 20:00N 37°32' E 025°09'3 6.2
2017-Aug-09 19:30N 37°33' E 025°06'11 2.8
2017-Aug-09 15:36N 37°36' E 024°52'414.1
2017-Aug-09 15:18N 37°33' E 024°55'413.9
2017-Aug-09 15:00N 37°29' E 024°57'2 4.9
2017-Aug-09 14:30N 37°26' E 024°57'610.0
2017-Aug-09 13:57N 37°32' E 024°54'613.7
2017-Aug-09 13:30N 37°34' E 024°46'33 3.0
2017-Aug-09 02:34N 37°03' E 025°02'114.4
2017-Aug-09 02:31N 37°04' E 025°03'5 0.7
2017-Aug-08 19:32N 37°05' E 025°08'112.9
2017-Aug-08 19:27N 37°05' E 025°07'  
Track history (hours):
 
Tides and Currents Weather Stations Pressure Air Temp Water Temp Dewpoint Dewpoint Depression Visibility Wind Speed Wind Dir Waves Ship Positions

Artemis

Last reported at 2017-Aug-18 15:06 UTC. Time now 2017-Aug-19 07:39 UTC.
Position N 36°59' E 025°17'.

Length 90 m; draft 3.7 m.

Type: Ship. MMSI: 237026300.

Date/timePositionNaut miles runAvg speedWind from/ knotsBaromVisibWave heightAir tempDewpointWater temp
2017-Aug-18 15:06N 36°59' E 025°17'114.4
2017-Aug-18 15:01N 37°01' E 025°18'713.5
2017-Aug-18 14:30N 37°06' E 025°22'11 8.5
2017-Aug-18 13:12N 37°07' E 025°08'1 2.2
2017-Aug-18 12:34N 37°05' E 025°09'112.5
2017-Aug-18 12:30N 37°05' E 025°08'714.2
2017-Aug-18 12:00N 37°12' E 025°10'714.6
2017-Aug-18 11:30N 37°19' E 025°14'714.7
2017-Aug-18 11:00N 37°25' E 025°17'3 5.7
2017-Aug-18 10:30N 37°28' E 025°20'510.5
2017-Aug-18 10:01N 37°28' E 025°13'713.1
2017-Aug-18 09:30N 37°27' E 025°05'713.3
2017-Aug-18 09:01N 37°26' E 024°57'1 1.3
2017-Aug-18 08:30N 37°27' E 024°57'611.9
2017-Aug-18 08:01N 37°31' E 024°52'8 0.4
2017-Aug-17 11:39N 37°26' E 024°44'214.0
2017-Aug-17 11:30N 37°25' E 024°46'713.7
2017-Aug-17 11:00N 37°22' E 024°54'510.6
2017-Aug-17 10:31N 37°26' E 024°57'2 3.7
2017-Aug-17 09:59N 37°28' E 024°57'714.7
2017-Aug-17 09:30N 37°34' E 024°53'6 1.6
2017-Aug-17 05:30N 37°37' E 025°01'714.3
2017-Aug-17 05:00N 37°32' E 025°08'3 6.2
2017-Aug-17 04:30N 37°29' E 025°09'713.2
2017-Aug-17 04:01N 37°23' E 025°08'1113.6
2017-Aug-17 03:12N 37°12' E 025°07'313.5
2017-Aug-17 03:00N 37°09' E 025°07'4 0.7
2017-Aug-16 21:22N 37°05' E 025°08'512.7
2017-Aug-16 21:00N 37°10' E 025°07'814.4
2017-Aug-16 20:28N 37°17' E 025°08'714.7
2017-Aug-16 20:01N 37°24' E 025°08'714.7
2017-Aug-16 19:31N 37°31' E 025°09'4 8.2
2017-Aug-16 19:00N 37°34' E 025°05'8 2.1
2017-Aug-16 15:05N 37°33' E 024°55'113.3
2017-Aug-16 14:59N 37°32' E 024°56'612.3
2017-Aug-16 14:29N 37°26' E 024°57'1 3.0
2017-Aug-16 14:00N 37°28' E 024°57'612.0
2017-Aug-16 13:29N 37°31' E 024°51'28 2.6
2017-Aug-16 02:43N 37°04' E 025°00'314.4
2017-Aug-16 02:31N 37°05' E 025°03'4 0.6
2017-Aug-15 19:21N 37°05' E 025°08'412.0
2017-Aug-15 19:00N 37°05' E 025°03'30 3.0
2017-Aug-15 08:51N 37°31' E 024°44'514.9
2017-Aug-15 08:30N 37°31' E 024°50'612.6
2017-Aug-15 08:01N 37°28' E 024°57'2 3.4
2017-Aug-15 07:30N 37°27' E 024°57'612.2
2017-Aug-15 07:00N 37°31' E 024°52'7 0.5
2017-Aug-14 17:22N 37°31' E 024°44'514.4
2017-Aug-14 17:00N 37°31' E 024°51'612.5
2017-Aug-14 16:30N 37°28' E 024°57'2 3.4
2017-Aug-14 16:00N 37°26' E 024°56'4 8.8
2017-Aug-14 15:30N 37°22' E 024°57'713.5
2017-Aug-14 15:00N 37°18' E 024°50'18 2.3
2017-Aug-14 07:10N 37°03' E 025°01'214.7
2017-Aug-14 07:01N 37°04' E 025°04'4 6.3
2017-Aug-14 06:23N 37°05' E 025°09'512.4
2017-Aug-14 06:01N 37°05' E 025°03'17 1.6
2017-Aug-13 19:01N 37°16' E 024°47'014.9
2017-Aug-13 19:01N 37°16' E 024°47'714.9
2017-Aug-13 18:31N 37°21' E 024°54'611.6
2017-Aug-13 18:01N 37°26' E 024°57'1 2.3
2017-Aug-13 17:30N 37°27' E 024°57'612.2
2017-Aug-13 17:00N 37°31' E 024°52'29 2.8
2017-Aug-13 06:40N 37°03' E 025°01'214.4
2017-Aug-13 06:30N 37°04' E 025°04'3 3.1
2017-Aug-13 05:31N 37°05' E 025°07'0 9.1
2017-Aug-13 05:30N 37°05' E 025°07'4 8.8
2017-Aug-13 05:00N 37°03' E 025°02'31 2.8
2017-Aug-12 17:53N 37°31' E 024°44'514.1
2017-Aug-12 17:30N 37°31' E 024°50'612.5
2017-Aug-12 17:00N 37°28' E 024°57'2 3.1
2017-Aug-12 16:24N 37°26' E 024°57'612.9
2017-Aug-12 15:58N 37°27' E 025°04'714.4
2017-Aug-12 15:30N 37°27' E 025°12'611.9
2017-Aug-12 15:00N 37°28' E 025°19'3 6.8
2017-Aug-12 14:30N 37°25' E 025°17'713.7
2017-Aug-12 14:01N 37°18' E 025°14'714.0
2017-Aug-12 13:30N 37°12' E 025°10'714.2
2017-Aug-12 13:01N 37°06' E 025°08'1 0.9
2017-Aug-12 12:01N 37°05' E 025°09'010.7
2017-Aug-12 12:00N 37°05' E 025°09'510.8
2017-Aug-12 11:31N 37°09' E 025°13'612.9
2017-Aug-12 11:01N 37°07' E 025°21'2 3.4
2017-Aug-12 10:31N 37°06' E 025°22'1 1.3
2017-Aug-12 10:00N 37°06' E 025°21'612.8
2017-Aug-12 09:31N 37°01' E 025°18'1 0.1
2017-Aug-11 15:59N 36°59' E 025°18'714.6
2017-Aug-11 15:30N 37°06' E 025°20'2 3.3
2017-Aug-11 15:00N 37°06' E 025°22'1110.9
2017-Aug-11 13:59N 37°07' E 025°08'2 2.0
2017-Aug-11 13:10N 37°05' E 025°08'211.0
2017-Aug-11 13:00N 37°07' E 025°08'714.7
2017-Aug-11 12:30N 37°14' E 025°11'714.6
2017-Aug-11 12:00N 37°20' E 025°15'714.0
2017-Aug-11 11:30N 37°27' E 025°18'2 3.4
2017-Aug-11 11:00N 37°28' E 025°19'2 3.8
2017-Aug-11 10:30N 37°29' E 025°17'713.2
2017-Aug-11 10:00N 37°28' E 025°09'713.5
2017-Aug-11 09:30N 37°27' E 025°01'3 6.3
2017-Aug-11 08:59N 37°26' E 024°56'2 4.7
2017-Aug-11 08:30N 37°29' E 024°57'612.1
2017-Aug-11 08:00N 37°31' E 024°50'7 0.4
2017-Aug-10 11:27N 37°26' E 024°44'613.9
2017-Aug-10 11:00N 37°23' E 024°50'612.9
2017-Aug-10 10:30N 37°24' E 024°59'3 6.1
2017-Aug-10 09:58N 37°26' E 024°56'4 9.3
2017-Aug-10 09:30N 37°31' E 024°56'714.1
2017-Aug-10 09:00N 37°37' E 024°53'8 3.0
2017-Aug-10 06:19N 37°45' E 024°52'1114.0
2017-Aug-10 05:32N 37°37' E 025°01'112.8
2017-Aug-10 05:30N 37°36' E 025°01'612.6
2017-Aug-10 05:01N 37°33' E 025°07'2 4.2
2017-Aug-10 04:30N 37°31' E 025°09'713.2
2017-Aug-10 04:00N 37°24' E 025°08'714.0
2017-Aug-10 03:30N 37°17' E 025°08'714.0
2017-Aug-10 03:00N 37°10' E 025°07'5 1.1
2017-Aug-09 22:01N 37°05' E 025°08'014.2
2017-Aug-09 22:00N 37°05' E 025°08'913.9
2017-Aug-09 21:20N 37°15' E 025°08'514.1
2017-Aug-09 21:00N 37°19' E 025°08'714.1
2017-Aug-09 20:30N 37°26' E 025°08'612.4
2017-Aug-09 20:00N 37°32' E 025°09'3 6.2
2017-Aug-09 19:30N 37°33' E 025°06'11 2.8
2017-Aug-09 15:36N 37°36' E 024°52'414.1
2017-Aug-09 15:18N 37°33' E 024°55'413.9
2017-Aug-09 15:00N 37°29' E 024°57'2 4.9
2017-Aug-09 14:30N 37°26' E 024°57'610.0
2017-Aug-09 13:57N 37°32' E 024°54'613.7
2017-Aug-09 13:30N 37°34' E 024°46'33 3.0
2017-Aug-09 02:34N 37°03' E 025°02'114.4
2017-Aug-09 02:31N 37°04' E 025°03'5 0.7
2017-Aug-08 19:32N 37°05' E 025°08'112.9
2017-Aug-08 19:27N 37°05' E 025°07'  

Dump ship's entire track history